Time;durP1;ratioP1;P1;durP2;ratioP2;P2;SDS_P1;SDS_P2;PMS_P1;PMS_P2;Temp;Humidity;BMP_temperature;BMP_pressure;BME280_temperature;BME280_humidity;BME280_pressure;Samples;Min_cycle;Max_cycle;Signal;HPM_P1;HPM_P2
2022/01/12 00:01:05;;;;;;;66.17;16.50;;;;;;;1.07;100.00;99687.16;5058755;28;21114;-74
2022/01/12 00:03:33;;;;;;;73.10;15.70;;;;;;;1.31;100.00;99683.78;5066794;28;20603;-73
2022/01/12 00:06:00;;;;;;;70.33;14.23;;;;;;;1.45;100.00;99690.22;5065783;28;20717;-74
2022/01/12 00:08:27;;;;;;;60.37;13.90;;;;;;;1.40;100.00;99689.88;5066762;28;20602;-74
2022/01/12 00:10:56;;;;;;;63.10;15.77;;;;;;;1.44;100.00;99686.78;5066541;28;20599;-74
2022/01/12 00:13:23;;;;;;;49.60;12.43;;;;;;;1.31;100.00;99690.84;5066951;28;20637;-74
2022/01/12 00:15:50;;;;;;;44.80;14.37;;;;;;;1.28;100.00;99688.53;5065184;28;20594;-74
2022/01/12 00:18:16;;;;;;;40.70;14.50;;;;;;;1.01;100.00;99687.78;5065100;28;20636;-75
2022/01/12 00:20:44;;;;;;;43.00;13.70;;;;;;;0.94;100.00;99685.94;5064882;28;20616;-74
2022/01/12 00:23:11;;;;;;;54.13;13.03;;;;;;;0.87;100.00;99684.91;5061207;28;21283;-74
2022/01/12 00:25:57;;;;;;;72.13;17.30;;;;;;;0.80;100.00;99687.38;5065809;28;20599;-74
2022/01/12 00:33:53;;;;;;;89.67;16.60;;;;;;;0.40;100.00;99677.44;5064525;28;20606;-74
2022/01/12 00:36:21;;;;;;;58.20;15.30;;;;;;;0.54;100.00;99686.56;5065500;28;20611;-74
2022/01/12 00:38:48;;;;;;;86.17;16.10;;;;;;;0.40;100.00;99679.28;5065168;28;20659;-74
2022/01/12 00:41:17;;;;;;;59.77;15.97;;;;;;;0.24;100.00;99681.78;5063970;28;20626;-74
2022/01/12 00:43:45;;;;;;;60.53;15.53;;;;;;;0.46;100.00;99681.28;5064053;28;20614;-74
2022/01/12 00:46:13;;;;;;;70.50;14.77;;;;;;;0.60;100.00;99691.22;5072585;28;20737;-74
2022/01/12 00:48:40;;;;;;;88.03;16.67;;;;;;;0.53;100.00;99688.38;5064274;28;21143;-74
2022/01/12 00:51:07;;;;;;;84.70;16.30;;;;;;;0.47;100.00;99690.78;5063736;28;20616;-74
2022/01/12 00:53:35;;;;;;;58.13;16.00;;;;;;;0.51;100.00;99687.72;5060663;28;20594;-74
2022/01/12 00:56:02;;;;;;;67.10;12.87;;;;;;;0.58;100.00;99687.91;5056873;28;20633;-74
2022/01/12 00:58:29;;;;;;;46.37;14.47;;;;;;;0.73;100.00;99677.63;5064094;28;20602;-74
2022/01/12 01:00:56;;;;;;;56.70;13.70;;;;;;;0.97;100.00;99685.63;5064887;28;20614;-74
2022/01/12 01:03:23;;;;;;;47.23;14.33;;;;;;;0.92;100.00;99691.38;5063828;28;20641;-74
2022/01/12 01:05:50;;;;;;;61.37;14.20;;;;;;;1.21;100.00;99690.97;5065122;28;20611;-75
2022/01/12 01:08:17;;;;;;;70.23;13.37;;;;;;;1.39;100.00;99690.88;5064893;28;20714;-74
2022/01/12 01:10:47;;;;;;;46.80;13.30;;;;;;;1.26;100.00;99695.78;5063820;28;20672;-74
2022/01/12 01:13:15;;;;;;;115.33;17.60;;;;;;;1.27;100.00;99690.31;5065314;28;20602;-75
2022/01/12 01:26:53;;;;;;;67.93;11.30;;;;;;;1.43;100.00;99690.38;5051482;28;20666;-74
2022/01/12 01:29:21;;;;;;;49.70;12.13;;;;;;;1.26;100.00;99696.59;5065676;28;20602;-73
2022/01/12 01:31:48;;;;;;;71.70;14.17;;;;;;;1.26;100.00;99701.03;5064588;28;20641;-74
2022/01/12 01:34:16;;;;;;;50.87;13.30;;;;;;;1.12;100.00;99702.47;5066578;28;20599;-73
2022/01/12 01:36:45;;;;;;;75.33;14.67;;;;;;;1.29;100.00;99711.25;5066545;28;20611;-73
2022/01/12 01:39:15;;;;;;;70.43;11.93;;;;;;;1.08;100.00;99722.19;5065327;28;20615;-74
2022/01/12 01:41:47;;;;;;;55.70;12.73;;;;;;;1.00;100.00;99714.25;5065253;28;20599;-74
2022/01/12 01:55:17;;;;;;;44.73;13.53;;;;;;;0.98;100.00;99724.13;5058774;28;20598;-74
2022/01/12 01:57:44;;;;;;;63.60;12.90;;;;;;;0.83;100.00;99731.78;5063787;28;20594;-74
2022/01/12 02:00:16;;;;;;;115.43;17.20;;;;;;;0.86;100.00;99731.47;5066630;28;20591;-73
2022/01/12 02:02:45;;;;;;;81.07;16.47;;;;;;;0.87;100.00;99730.47;5068725;28;20616;-75
2022/01/12 02:05:12;;;;;;;79.23;17.67;;;;;;;0.74;100.00;99731.88;5068597;28;20628;-74
2022/01/12 02:07:39;;;;;;;80.37;14.20;;;;;;;0.79;100.00;99722.53;5067352;28;20652;-73
2022/01/12 02:10:07;;;;;;;51.10;13.60;;;;;;;0.98;100.00;99718.84;5068445;28;20616;-74
2022/01/12 02:12:33;;;;;;;64.70;14.90;;;;;;;0.81;100.00;99732.91;5068500;28;20655;-74
2022/01/12 02:15:01;;;;;;;98.87;14.97;;;;;;;0.80;100.00;99732.09;5068241;28;20609;-74
2022/01/12 02:17:35;;;;;;;67.20;13.43;;;;;;;1.11;100.00;99731.56;5068525;28;20608;-74
2022/01/12 02:20:28;;;;;;;46.43;11.97;;;;;;;1.38;100.00;99726.91;5068897;28;20613;-74
2022/01/12 02:36:56;;;;;;;50.67;12.47;;;;;;;1.49;100.00;99728.41;5067711;28;20602;-74
2022/01/12 02:42:09;;;;;;;63.10;12.53;;;;;;;1.38;100.00;99726.06;5062584;28;20634;-74
2022/01/12 02:55:46;;;;;;;75.70;15.63;;;;;;;0.82;100.00;99734.56;4973008;28;20617;-74
2022/01/12 02:58:12;;;;;;;65.90;13.90;;;;;;;0.76;100.00;99738.63;5043651;28;20645;-73
2022/01/12 03:00:58;;;;;;;45.57;10.60;;;;;;;0.91;100.00;99737.06;5068069;28;20628;-74
2022/01/12 03:03:27;;;;;;;57.10;14.07;;;;;;;0.77;100.00;99740.31;5068338;28;20669;-74
2022/01/12 03:05:59;;;;;;;59.53;12.60;;;;;;;0.84;100.00;99738.66;5068200;28;20685;-73
2022/01/12 03:08:27;;;;;;;106.83;15.50;;;;;;;0.85;100.00;99745.59;5068077;28;20653;-73
2022/01/12 03:10:55;;;;;;;72.03;13.63;;;;;;;0.99;100.00;99746.81;5067539;28;21176;-73
2022/01/12 03:13:22;;;;;;;44.90;11.03;;;;;;;1.22;100.00;99742.63;5067317;28;20602;-73
2022/01/12 03:15:49;;;;;;;61.03;12.70;;;;;;;1.35;100.00;99742.19;5067902;28;20598;-73
2022/01/12 03:18:16;;;;;;;60.63;12.57;;;;;;;1.37;100.00;99745.47;5067790;28;20637;-74
2022/01/12 03:20:45;;;;;;;53.43;12.23;;;;;;;1.03;100.00;99738.44;5066570;28;20590;-75
2022/01/12 03:23:12;;;;;;;67.80;12.33;;;;;;;1.09;100.00;99734.34;5074854;28;20603;-74
2022/01/12 03:25:38;;;;;;;103.80;15.67;;;;;;;1.01;100.00;99735.16;5067972;28;20598;-74
2022/01/12 03:28:07;;;;;;;75.03;12.20;;;;;;;1.07;100.00;99744.22;5067888;28;20645;-74
2022/01/12 03:30:41;;;;;;;47.30;12.00;;;;;;;0.97;100.00;99754.03;5066723;28;20713;-74
2022/01/12 03:33:12;;;;;;;82.20;13.80;;;;;;;0.76;100.00;99749.16;5060350;28;20621;-75
2022/01/12 03:35:50;;;;;;;72.03;13.57;;;;;;;1.13;100.00;99753.28;5067811;28;20614;-74
2022/01/12 03:38:23;;;;;;;82.13;13.83;;;;;;;0.88;100.00;99745.28;5067790;28;20617;-74
2022/01/12 03:40:50;;;;;;;75.40;13.57;;;;;;;0.74;100.00;99740.59;5066798;28;20614;-75
2022/01/12 03:43:18;;;;;;;65.67;12.93;;;;;;;0.75;100.00;99747.50;5067081;28;20610;-75
2022/01/12 03:45:46;;;;;;;78.97;12.87;;;;;;;0.92;100.00;99741.38;5066045;28;20667;-74
2022/01/12 03:48:12;;;;;;;45.10;11.50;;;;;;;0.94;100.00;99722.78;5067236;28;20642;-74
2022/01/12 03:50:39;;;;;;;51.93;11.20;;;;;;;1.03;100.00;99738.44;5066882;28;20636;-75
2022/01/12 03:53:06;;;;;;;54.00;13.40;;;;;;;0.95;100.00;99730.53;5060960;28;20630;-74
2022/01/12 03:55:33;;;;;;;74.07;14.47;;;;;;;0.97;100.00;99723.28;5066538;28;20594;-74
2022/01/12 03:57:59;;;;;;;42.27;12.00;;;;;;;0.97;100.00;99731.19;5065679;28;20602;-74
2022/01/12 04:00:27;;;;;;;75.43;12.40;;;;;;;1.14;100.00;99739.16;5067148;28;20625;-74
2022/01/12 04:02:54;;;;;;;93.87;13.50;;;;;;;1.11;100.00;99744.72;5065840;28;20606;-74
2022/01/12 04:05:40;;;;;;;43.33;12.20;;;;;;;1.08;100.00;99740.63;5065756;28;20732;-74
2022/01/12 04:08:20;;;;;;;62.83;13.50;;;;;;;0.87;100.00;99737.53;5059169;28;20652;-74
2022/01/12 04:10:47;;;;;;;69.17;13.67;;;;;;;0.82;100.00;99745.91;5066624;28;20618;-74
2022/01/12 04:13:14;;;;;;;64.90;13.80;;;;;;;0.90;100.00;99745.94;5066816;28;20602;-74
2022/01/12 04:15:43;;;;;;;80.83;14.30;;;;;;;0.91;100.00;99734.44;5066279;28;20609;-75
2022/01/12 04:18:10;;;;;;;48.00;10.73;;;;;;;0.88;100.00;99733.94;5066887;28;21593;-75
2022/01/12 04:20:43;;;;;;;74.70;13.00;;;;;;;0.81;100.00;99738.97;5066966;28;21029;-74
2022/01/12 04:23:19;;;;;;;55.20;13.80;;;;;;;0.64;100.00;99742.50;5055260;28;20638;-74
2022/01/12 04:25:47;;;;;;;57.23;13.70;;;;;;;0.35;100.00;99752.47;5066912;28;20606;-74
2022/01/12 04:28:15;;;;;;;51.50;12.93;;;;;;;0.29;100.00;99747.84;5066552;28;20638;-74
2022/01/12 04:30:44;;;;;;;53.97;11.63;;;;;;;0.50;100.00;99735.19;5066070;28;21285;-74
2022/01/12 04:33:11;;;;;;;40.17;11.00;;;;;;;0.63;100.00;99746.13;5065921;28;20674;-73
2022/01/12 04:35:45;;;;;;;59.57;10.40;;;;;;;0.76;100.00;99741.25;5064966;28;20764;-73
2022/01/12 04:38:12;;;;;;;76.73;13.20;;;;;;;0.95;100.00;99733.16;5065234;28;20625;-74
2022/01/12 04:40:39;;;;;;;46.43;11.80;;;;;;;1.02;100.00;99739.41;5065655;28;20633;-74
2022/01/12 04:43:07;;;;;;;54.50;11.50;;;;;;;1.00;100.00;99733.50;5066278;28;20718;-75
2022/01/12 04:45:41;;;;;;;69.83;14.37;;;;;;;0.88;100.00;99753.16;5065334;28;20607;-74
2022/01/12 04:48:31;;;;;;;61.83;12.00;;;;;;;0.87;100.00;99751.50;5057717;28;20692;-74
2022/01/12 04:50:58;;;;;;;58.50;10.57;;;;;;;0.93;100.00;99742.16;5065097;28;20626;-74
2022/01/12 04:53:25;;;;;;;85.63;12.90;;;;;;;1.07;100.00;99755.56;5065065;28;20594;-74
2022/01/12 04:55:52;;;;;;;85.47;13.97;;;;;;;1.08;100.00;99762.47;5065734;28;20606;-74
2022/01/12 04:58:20;;;;;;;52.43;11.43;;;;;;;1.03;100.00;99770.00;5064732;28;20602;-74
2022/01/12 05:00:49;;;;;;;70.60;12.40;;;;;;;0.94;100.00;99784.09;5065672;28;20621;-75
2022/01/12 05:09:03;;;;;;;48.53;11.53;;;;;;;0.96;100.00;99760.28;5065917;28;20636;-75
2022/01/12 05:14:14;;;;;;;66.07;12.93;;;;;;;1.15;100.00;99770.56;5058957;28;20606;-74
2022/01/12 05:16:41;;;;;;;35.83;9.57;;;;;;;0.97;100.00;99770.66;5065616;28;20640;-74
2022/01/12 05:19:09;;;;;;;50.77;12.37;;;;;;;0.74;100.00;99769.53;5065699;28;20625;-74
2022/01/12 05:21:36;;;;;;;60.13;13.57;;;;;;;0.29;100.00;99774.94;5064626;28;20595;-74
2022/01/12 05:24:06;;;;;;;81.70;17.37;;;;;;;0.20;100.00;99782.91;5062530;28;20591;-74
2022/01/12 05:26:33;;;;;;;49.60;12.37;;;;;;;0.27;100.00;99783.97;5065993;28;20645;-74
2022/01/12 05:28:59;;;;;;;64.50;12.20;;;;;;;0.63;100.00;99777.66;5064675;28;20708;-74
2022/01/12 05:31:26;;;;;;;48.70;11.00;;;;;;;0.47;100.00;99773.13;5081320;28;21000;-74
2022/01/12 05:33:53;;;;;;;75.23;15.30;;;;;;;0.28;100.00;99783.00;5065342;28;20622;-74
2022/01/12 05:36:22;;;;;;;71.33;12.77;;;;;;;0.19;100.00;99781.25;5069642;28;20609;-74
2022/01/12 05:38:49;;;;;;;69.30;12.93;;;;;;;0.34;100.00;99785.81;5069785;28;20797;-74
2022/01/12 05:41:16;;;;;;;47.97;12.03;;;;;;;0.33;100.00;99796.50;5068619;28;20625;-74
2022/01/12 05:43:45;;;;;;;61.20;15.70;;;;;;;0.10;100.00;99803.19;5070000;28;20590;-74
2022/01/12 05:46:13;;;;;;;43.03;11.83;;;;;;;0.16;100.00;99799.94;5068422;28;20641;-74
2022/01/12 05:51:28;;;;;;;61.50;12.83;;;;;;;0.49;100.00;99801.88;5069021;28;20697;-74
2022/01/12 05:53:55;;;;;;;48.67;11.37;;;;;;;0.60;100.00;99804.25;5068619;28;20613;-74
2022/01/12 05:56:22;;;;;;;77.37;13.67;;;;;;;0.76;100.00;99804.38;5068845;28;20614;-74
2022/01/12 05:58:50;;;;;;;88.23;15.70;;;;;;;0.40;100.00;99808.06;5068509;28;20956;-74
2022/01/12 06:01:16;;;;;;;54.00;13.90;;;;;;;0.16;100.00;99807.81;5068445;28;20591;-74
2022/01/12 06:03:43;;;;;;;74.73;12.37;;;;;;;0.45;100.00;99816.31;5067401;28;20716;-74
2022/01/12 06:06:10;;;;;;;49.33;13.20;;;;;;;0.56;100.00;99810.78;5068242;28;20697;-74
2022/01/12 06:08:38;;;;;;;84.97;14.77;;;;;;;0.56;100.00;99818.69;5067076;28;20712;-73
2022/01/12 06:11:06;;;;;;;108.57;13.40;;;;;;;0.44;100.00;99823.38;5060468;28;20593;-74
2022/01/12 06:13:32;;;;;;;74.67;14.37;;;;;;;0.25;100.00;99838.47;5066989;28;20668;-74
2022/01/12 06:15:59;;;;;;;48.17;11.67;;;;;;;0.34;100.00;99841.00;5068255;28;20598;-74
2022/01/12 06:18:26;;;;;;;120.30;15.67;;;;;;;0.42;100.00;99830.59;5068487;28;20606;-77
2022/01/12 06:20:53;;;;;;;78.37;12.33;;;;;;;0.73;100.00;99846.78;5068484;28;20624;-77
2022/01/12 06:23:20;;;;;;;77.50;14.90;;;;;;;0.94;100.00;99838.53;5062760;28;20617;-78
2022/01/12 06:25:47;;;;;;;60.97;13.13;;;;;;;0.85;100.00;99842.91;5067960;28;20660;-77
2022/01/12 06:28:36;;;;;;;70.53;13.80;;;;;;;0.71;100.00;99838.22;5067070;28;20912;-77
2022/01/12 06:31:14;;;;;;;102.63;14.50;;;;;;;0.62;100.00;99844.38;5058503;28;20610;-76
2022/01/12 06:33:44;;;;;;;36.47;10.40;;;;;;;0.81;100.00;99833.66;5066760;28;20620;-77
2022/01/12 06:36:13;;;;;;;68.40;12.90;;;;;;;1.00;100.00;99833.47;5068082;28;20598;-77
2022/01/12 06:38:40;;;;;;;83.43;13.03;;;;;;;1.05;100.00;99836.44;5066759;28;20602;-77
2022/01/12 06:41:08;;;;;;;53.63;13.73;;;;;;;1.16;100.00;99845.06;5067468;28;20614;-77
2022/01/12 06:43:36;;;;;;;97.40;15.33;;;;;;;1.12;100.00;99846.34;5068040;28;20616;-77
2022/01/12 06:46:03;;;;;;;57.33;11.70;;;;;;;1.26;100.00;99854.53;5059605;28;20629;-77
2022/01/12 06:48:30;;;;;;;68.50;13.23;;;;;;;1.32;100.00;99858.31;5067321;28;21359;-77
2022/01/12 06:50:56;;;;;;;76.07;13.87;;;;;;;1.01;100.00;99881.66;5068024;28;20671;-77
2022/01/12 06:53:25;;;;;;;35.23;10.30;;;;;;;0.91;100.00;99879.13;5067109;28;20614;-76
2022/01/12 06:55:52;;;;;;;76.70;12.47;;;;;;;0.98;100.00;99877.53;5066519;28;20633;-77
2022/01/12 06:58:20;;;;;;;72.40;12.90;;;;;;;0.97;100.00;99886.41;5067080;28;20618;-77
2022/01/12 07:00:47;;;;;;;39.63;12.73;;;;;;;0.54;100.00;99889.84;5068537;28;20694;-77
2022/01/12 07:03:14;;;;;;;41.87;11.93;;;;;;;0.73;100.00;99896.72;5067221;28;20690;-77
2022/01/12 07:05:41;;;;;;;65.40;14.00;;;;;;;0.34;100.00;99901.47;5066233;28;20606;-77
2022/01/12 07:08:07;;;;;;;58.63;11.43;;;;;;;0.26;100.00;99896.13;5066215;28;20665;-76
2022/01/12 07:10:34;;;;;;;81.53;15.23;;;;;;;0.17;100.00;99890.94;5066111;28;20602;-76
2022/01/12 07:13:01;;;;;;;32.77;9.60;;;;;;;0.19;100.00;99894.22;5058130;28;20616;-76
2022/01/12 07:15:29;;;;;;;53.10;12.87;;;;;;;0.08;100.00;99912.84;5066195;28;20594;-76
2022/01/12 07:17:56;;;;;;;56.83;11.20;;;;;;;0.08;100.00;99918.94;5066419;28;20618;-77
2022/01/12 07:20:23;;;;;;;57.43;11.70;;;;;;;0.14;100.00;99914.88;5066753;28;20598;-77
2022/01/12 07:22:50;;;;;;;43.13;11.40;;;;;;;0.59;100.00;99918.28;5066686;28;20625;-77
2022/01/12 07:25:16;;;;;;;63.30;13.00;;;;;;;0.80;100.00;99913.56;5067303;28;20602;-77
2022/01/12 07:27:43;;;;;;;63.10;11.43;;;;;;;0.81;100.00;99902.06;5067473;28;20629;-77
2022/01/12 07:30:11;;;;;;;48.33;10.50;;;;;;;0.71;100.00;99898.69;5069220;28;20689;-77
2022/01/12 07:32:39;;;;;;;62.70;11.80;;;;;;;1.00;100.00;99906.31;5067267;28;20650;-78
2022/01/12 07:35:07;;;;;;;69.83;11.90;;;;;;;1.00;100.00;99917.66;5059873;28;20590;-78
2022/01/12 07:37:34;;;;;;;52.53;11.27;;;;;;;0.92;100.00;99914.97;5066327;28;20621;-77
2022/01/12 07:40:01;;;;;;;36.43;10.60;;;;;;;0.81;100.00;99924.88;5066498;28;20675;-78
2022/01/12 07:42:28;;;;;;;45.70;9.37;;;;;;;0.73;100.00;99922.19;5067808;28;20625;-78
2022/01/12 07:44:59;;;;;;;92.87;13.80;;;;;;;1.02;100.00;99920.97;5067530;28;21306;-77
2022/01/12 07:47:26;;;;;;;47.93;10.87;;;;;;;1.23;100.00;99941.69;5066438;28;20615;-78
2022/01/12 07:49:56;;;;;;;69.00;11.00;;;;;;;1.20;100.00;99939.38;5066206;28;20668;-77
2022/01/12 07:52:23;;;;;;;106.20;15.20;;;;;;;1.26;100.00;99944.00;5063198;28;20625;-77
2022/01/12 07:54:50;;;;;;;70.40;11.30;;;;;;;1.41;100.00;99936.38;5066117;28;21413;-77
2022/01/12 07:57:17;;;;;;;55.47;11.13;;;;;;;1.46;100.00;99934.09;5065857;28;20602;-77
2022/01/12 07:59:44;;;;;;;50.80;12.00;;;;;;;1.51;100.00;99950.25;5066736;28;20622;-77
2022/01/12 08:02:11;;;;;;;39.20;10.73;;;;;;;1.54;100.00;99944.69;5066905;28;20594;-76
2022/01/12 08:04:37;;;;;;;31.30;10.20;;;;;;;1.56;100.00;99937.44;5066830;28;20614;-78
2022/01/12 08:07:07;;;;;;;69.27;12.10;;;;;;;1.59;100.00;99947.66;5059204;28;20614;-77
2022/01/12 08:09:34;;;;;;;50.87;12.20;;;;;;;1.58;100.00;99949.47;5066881;28;20752;-77
2022/01/12 08:12:01;;;;;;;44.27;10.07;;;;;;;1.55;100.00;99955.03;5066281;28;20609;-77
2022/01/12 08:14:27;;;;;;;45.97;12.03;;;;;;;1.29;100.00;99962.13;5066423;28;21086;-78
2022/01/12 08:16:54;;;;;;;62.77;12.77;;;;;;;1.11;100.00;99956.06;5067707;28;20595;-78
2022/01/12 08:19:22;;;;;;;46.33;9.53;;;;;;;0.99;100.00;99950.22;5067243;28;20618;-77
2022/01/12 08:21:49;;;;;;;70.60;11.93;;;;;;;0.90;100.00;99968.69;5067940;28;20603;-78
2022/01/12 08:24:17;;;;;;;48.57;10.10;;;;;;;0.99;100.00;99973.09;5062349;28;20610;-77
2022/01/12 08:26:44;;;;;;;83.70;12.77;;;;;;;1.15;100.00;99967.94;5066150;28;20653;-77
2022/01/12 08:29:14;;;;;;;44.90;10.23;;;;;;;1.35;100.00;99968.59;5065569;28;20676;-77
2022/01/12 08:31:41;;;;;;;42.30;10.20;;;;;;;1.20;100.00;99985.91;5065867;28;20610;-77
2022/01/12 08:34:10;;;;;;;47.20;11.53;;;;;;;0.97;100.00;99980.28;5066094;28;20598;-77
2022/01/12 08:36:36;;;;;;;48.80;10.40;;;;;;;1.02;100.00;99975.41;5065101;28;20702;-77
2022/01/12 08:39:05;;;;;;;46.27;10.57;;;;;;;1.01;100.00;99976.38;5057134;28;20595;-77
2022/01/12 08:41:35;;;;;;;60.40;11.53;;;;;;;0.75;100.00;99976.31;5066416;28;20622;-77
2022/01/12 08:44:01;;;;;;;82.67;12.90;;;;;;;0.71;100.00;99979.41;5066423;28;20600;-77
2022/01/12 08:46:28;;;;;;;62.13;10.53;;;;;;;0.88;100.00;99973.28;5065432;28;20606;-77
2022/01/12 08:48:54;;;;;;;82.13;11.70;;;;;;;1.03;100.00;99992.81;5066089;28;20646;-78
2022/01/12 08:51:21;;;;;;;82.87;13.03;;;;;;;1.13;100.00;99993.56;5064662;28;20626;-77
2022/01/12 08:53:48;;;;;;;93.47;12.17;;;;;;;1.21;100.00;100000.72;5059822;28;20610;-74
2022/01/12 08:56:15;;;;;;;44.33;11.27;;;;;;;1.33;100.00;99999.50;5065490;28;20613;-74
2022/01/12 08:58:43;;;;;;;60.07;11.30;;;;;;;1.23;100.00;99985.59;5064131;28;20602;-77
2022/01/12 09:01:10;;;;;;;45.53;10.40;;;;;;;1.31;100.00;99973.31;5064195;28;20607;-77
2022/01/12 09:03:37;;;;;;;42.13;10.33;;;;;;;1.48;100.00;99966.38;5065492;28;20610;-77
2022/01/12 09:06:05;;;;;;;36.57;9.80;;;;;;;1.59;100.00;99966.09;5057340;28;20602;-77
2022/01/12 09:08:31;;;;;;;86.43;12.50;;;;;;;1.57;100.00;99979.44;5063341;28;20622;-77
2022/01/12 09:10:58;;;;;;;73.93;12.80;;;;;;;1.75;100.00;99975.91;5063879;28;20634;-77
2022/01/12 09:13:25;;;;;;;75.40;10.97;;;;;;;1.80;100.00;99976.25;5072565;28;20599;-73
2022/01/12 09:15:53;;;;;;;62.43;11.57;;;;;;;1.61;100.00;99980.75;5065267;28;20599;-73
2022/01/12 09:18:19;;;;;;;60.87;12.27;;;;;;;1.80;100.00;99987.63;5064712;28;20613;-77
2022/01/12 09:20:47;;;;;;;76.90;11.83;;;;;;;1.47;100.00;99996.31;5064844;28;20632;-77
2022/01/12 09:23:13;;;;;;;50.37;10.50;;;;;;;1.40;100.00;100004.00;5066425;28;20594;-77
2022/01/12 09:25:41;;;;;;;76.33;11.50;;;;;;;1.62;100.00;99992.13;5065278;28;20599;-77
2022/01/12 09:28:09;;;;;;;62.10;13.20;;;;;;;1.46;100.00;99998.09;5064591;28;20684;-77
2022/01/12 09:30:37;;;;;;;74.60;13.30;;;;;;;0.90;100.00;100001.09;5065522;28;20684;-77
2022/01/12 09:33:06;;;;;;;55.53;10.80;;;;;;;1.11;100.00;99987.66;5057364;28;21071;-77
2022/01/12 09:35:33;;;;;;;46.03;10.20;;;;;;;1.35;100.00;100002.81;5065270;28;20607;-77
2022/01/12 09:37:59;;;;;;;44.73;10.83;;;;;;;1.53;100.00;99996.53;5064872;28;20614;-78
2022/01/12 09:40:26;;;;;;;71.27;14.03;;;;;;;1.64;100.00;100003.31;5065375;28;20649;-77
2022/01/12 09:42:53;;;;;;;40.43;10.67;;;;;;;1.13;100.00;100005.91;5065153;28;20602;-77
2022/01/12 09:45:23;;;;;;;74.63;13.57;;;;;;;0.76;100.00;100012.16;5066120;28;20598;-77
2022/01/12 09:47:51;;;;;;;58.67;12.30;;;;;;;0.79;100.00;100001.34;5064556;28;20602;-76
2022/01/12 09:50:21;;;;;;;29.33;11.73;;;;;;;0.78;100.00;99994.41;5065738;28;20643;-77
2022/01/12 09:52:48;;;;;;;56.47;12.37;;;;;;;0.74;100.00;100000.13;5060803;28;21316;-77
2022/01/12 09:55:15;;;;;;;72.07;13.27;;;;;;;0.89;100.00;99994.19;5064996;28;20598;-77
2022/01/12 09:57:42;;;;;;;41.30;11.23;;;;;;;0.81;100.00;100001.16;5064350;28;20656;-78
2022/01/12 10:00:11;;;;;;;60.43;12.47;;;;;;;0.81;100.00;100004.63;5065523;28;20621;-77
2022/01/12 10:02:37;;;;;;;96.60;15.30;;;;;;;0.90;100.00;100005.53;5065537;28;20606;-77
2022/01/12 10:05:06;;;;;;;61.33;11.83;;;;;;;0.86;100.00;100005.03;5055861;28;20685;-77
2022/01/12 10:07:34;;;;;;;62.73;11.00;;;;;;;0.99;100.00;99984.41;5064356;28;21298;-78
2022/01/12 10:10:05;;;;;;;74.00;12.77;;;;;;;1.20;100.00;99972.75;5064406;28;20643;-75
2022/01/12 10:12:33;;;;;;;65.23;12.83;;;;;;;1.35;100.00;99958.06;5064327;28;20993;-78
2022/01/12 10:15:01;;;;;;;68.83;12.80;;;;;;;1.55;100.00;99976.13;5064145;28;20660;-77
2022/01/12 10:17:33;;;;;;;51.40;10.20;;;;;;;1.20;100.00;99986.75;5064120;28;20599;-78
2022/01/12 10:20:07;;;;;;;56.23;10.43;;;;;;;1.16;100.00;99989.81;5065364;28;20617;-77
2022/01/12 10:22:35;;;;;;;100.77;14.47;;;;;;;1.21;100.00;99992.84;5064042;28;20603;-78
2022/01/12 10:25:13;;;;;;;148.57;17.23;;;;;;;1.11;100.00;100002.59;5067026;28;20629;-77
2022/01/12 10:27:41;;;;;;;50.07;11.40;;;;;;;1.06;100.00;100003.06;5068537;28;20617;-76
2022/01/12 10:30:09;;;;;;;57.27;10.50;;;;;;;1.26;100.00;99988.75;5067808;28;20654;-76
2022/01/12 10:32:35;;;;;;;87.57;14.87;;;;;;;1.25;100.00;99996.78;5068182;28;20649;-78
2022/01/12 10:35:02;;;;;;;71.40;12.77;;;;;;;1.06;100.00;100011.78;5069326;28;20602;-79
2022/01/12 10:37:30;;;;;;;75.20;13.43;;;;;;;0.81;100.00;100016.94;5067422;28;20606;-76
2022/01/12 10:39:58;;;;;;;98.43;12.97;;;;;;;0.86;100.00;100009.47;5066871;28;20602;-77
2022/01/12 10:42:27;;;;;;;50.70;11.33;;;;;;;0.92;100.00;100004.44;5067610;28;20673;-75
2022/01/12 10:44:56;;;;;;;49.03;11.57;;;;;;;1.20;100.00;100004.34;5067748;28;20606;-81
2022/01/12 10:47:24;;;;;;;45.00;10.43;;;;;;;1.34;100.00;100007.22;5069081;28;20633;-81
2022/01/12 10:50:01;;;;;;;65.17;13.30;;;;;;;1.29;100.00;100009.50;5068312;28;21332;-76
2022/01/12 10:52:30;;;;;;;41.30;10.70;;;;;;;1.07;100.00;100008.19;5067601;28;20617;-77
2022/01/12 10:55:02;;;;;;;52.23;10.90;;;;;;;1.06;100.00;100011.78;5066687;28;20640;-77
2022/01/12 10:57:30;;;;;;;56.17;11.30;;;;;;;1.06;100.00;100010.94;5066139;28;20633;-76
2022/01/12 11:00:19;;;;;;;51.07;11.27;;;;;;;1.00;100.00;100017.66;5067583;28;20632;-76
2022/01/12 11:02:48;;;;;;;40.63;10.43;;;;;;;0.91;100.00;100008.03;5066501;28;20610;-78
2022/01/12 11:05:15;;;;;;;67.87;14.00;;;;;;;0.87;100.00;100022.44;5068236;28;20602;-78
2022/01/12 11:07:42;;;;;;;65.73;12.57;;;;;;;0.67;100.00;100026.19;5066727;28;20606;-78
2022/01/12 11:10:11;;;;;;;43.63;9.80;;;;;;;0.98;100.00;100019.59;5067750;28;20638;-79
2022/01/12 11:12:39;;;;;;;47.00;12.90;;;;;;;1.32;100.00;100025.00;5068411;28;20594;-78
2022/01/12 11:15:07;;;;;;;49.53;10.57;;;;;;;1.23;100.00;100027.72;5055661;28;20673;-77
2022/01/12 11:17:34;;;;;;;76.23;12.03;;;;;;;1.19;100.00;100042.16;5059118;28;20603;-77
2022/01/12 11:20:09;;;;;;;87.63;13.87;;;;;;;1.00;100.00;100027.34;5067301;28;20645;-77
2022/01/12 11:22:46;;;;;;;83.97;13.30;;;;;;;1.03;100.00;100025.22;5061611;28;20590;-76
2022/01/12 11:25:24;;;;;;;51.50;10.80;;;;;;;0.86;100.00;100028.69;5060248;28;20604;-77
2022/01/12 11:28:04;;;;;;;60.30;11.07;;;;;;;1.11;100.00;100023.66;5065933;28;20598;-77
2022/01/12 11:30:33;;;;;;;92.67;13.97;;;;;;;1.15;100.00;100022.34;5066946;28;20737;-77
2022/01/12 11:33:02;;;;;;;76.93;13.23;;;;;;;0.99;100.00;100017.81;5064753;28;20617;-77
2022/01/12 11:35:30;;;;;;;72.83;13.13;;;;;;;0.89;100.00;100020.50;5066045;28;20599;-76
2022/01/12 11:37:59;;;;;;;80.60;12.23;;;;;;;1.02;100.00;100028.84;5065759;28;20641;-76
2022/01/12 11:40:35;;;;;;;87.80;13.00;;;;;;;1.36;100.00;100013.16;5065591;28;20629;-76
2022/01/12 11:43:03;;;;;;;63.10;11.93;;;;;;;1.47;100.00;100014.75;5065264;28;20679;-76
2022/01/12 11:45:30;;;;;;;87.87;13.70;;;;;;;1.53;100.00;100027.28;5066246;28;20615;-77
2022/01/12 11:47:56;;;;;;;66.47;11.50;;;;;;;1.49;100.00;100018.03;5065531;28;20646;-76
2022/01/12 11:50:23;;;;;;;56.67;9.40;;;;;;;1.40;100.00;100013.69;5065985;28;20635;-77
2022/01/12 11:52:50;;;;;;;76.53;11.93;;;;;;;1.49;100.00;100005.69;5061783;28;20599;-77
2022/01/12 11:55:19;;;;;;;112.03;14.63;;;;;;;1.48;100.00;100008.50;5082497;28;20594;-77
2022/01/12 11:57:50;;;;;;;86.13;12.63;;;;;;;1.27;100.00;100014.06;5082458;28;20695;-77
2022/01/12 12:00:18;;;;;;;132.47;15.57;;;;;;;1.46;100.00;100027.06;5065614;28;20633;-77
2022/01/12 12:02:47;;;;;;;59.57;12.17;;;;;;;1.62;100.00;100015.81;5065617;28;20599;-76
2022/01/12 12:05:16;;;;;;;42.97;9.87;;;;;;;1.82;100.00;100000.66;5066928;28;20601;-77
2022/01/12 12:07:45;;;;;;;69.10;9.93;;;;;;;1.97;100.00;99997.28;5066378;28;20591;-77
2022/01/12 12:10:15;;;;;;;57.43;10.10;;;;;;;1.68;100.00;99980.97;5062948;28;20672;-77
2022/01/12 12:12:42;;;;;;;147.10;15.23;;;;;;;1.59;100.00;99987.16;5064278;28;20602;-77
2022/01/12 12:15:12;;;;;;;91.80;11.23;;;;;;;1.77;100.00;99974.75;5060968;28;20607;-77
2022/01/12 12:17:41;;;;;;;63.53;10.33;;;;;;;2.14;100.00;99958.63;5061087;28;20720;-77
2022/01/12 12:20:11;;;;;;;105.90;11.60;;;;;;;2.10;100.00;99960.75;5059229;28;21328;-77
2022/01/12 12:22:40;;;;;;;53.80;10.13;;;;;;;1.88;100.00;99956.06;5062833;28;20618;-76
2022/01/12 12:25:10;;;;;;;76.13;11.07;;;;;;;1.81;100.00;99960.31;5060172;28;20962;-76
2022/01/12 12:27:39;;;;;;;50.03;9.63;;;;;;;1.85;100.00;99948.47;5061425;28;20591;-77